createdAt,value
2018-03-01T00:00:36.213Z,47.67
2018-03-01T00:03:05.592Z,45.87
2018-03-01T00:05:35.085Z,47.53
2018-03-01T00:08:03.894Z,41.17
2018-03-01T00:10:33.502Z,42.30
2018-03-01T00:13:02.111Z,45.10
2018-03-01T00:15:34.100Z,40.80
2018-03-01T00:18:08.602Z,40.23
2018-03-01T00:20:38.150Z,43.40
2018-03-01T00:23:08.672Z,39.60
2018-03-01T00:25:37.951Z,42.80
2018-03-01T00:28:07.811Z,40.07
2018-03-01T00:30:37.456Z,40.63
2018-03-01T00:33:11.899Z,47.47
2018-03-01T00:35:43.492Z,46.23
2018-03-01T00:38:11.768Z,40.67
2018-03-01T00:40:40.064Z,49.53
2018-03-01T00:43:08.360Z,45.37
2018-03-01T00:45:37.633Z,43.33
2018-03-01T00:48:09.326Z,49.70
2018-03-01T00:50:44.200Z,40.40
2018-03-01T00:53:15.722Z,47.00
2018-03-01T00:56:24.664Z,42.33
2018-03-01T00:59:00.146Z,46.03
2018-03-01T01:01:33.960Z,42.63
2018-03-01T01:04:10.483Z,43.83
2018-03-01T01:06:44.161Z,41.83
2018-03-01T01:09:19.423Z,44.50
2018-03-01T01:11:56.666Z,46.80
2018-03-01T01:14:24.949Z,45.30
2018-03-01T01:16:53.234Z,44.37
2018-03-01T01:19:21.525Z,43.23
2018-03-01T01:21:49.804Z,46.40
2018-03-01T01:24:19.609Z,39.63
2018-03-01T01:27:11.421Z,51.60
2018-03-01T01:29:40.070Z,44.33
2018-03-01T01:32:08.354Z,46.77
2018-03-01T01:34:38.003Z,42.70
2018-03-01T01:37:12.888Z,45.47
2018-03-01T01:39:47.677Z,47.67
2018-03-01T01:42:17.141Z,51.03
2018-03-01T01:44:46.838Z,40.77
2018-03-01T01:47:15.816Z,44.00
2018-03-01T01:49:44.108Z,45.60
2018-03-01T01:52:12.412Z,38.17
2018-03-01T01:54:43.874Z,40.03
2018-03-01T01:57:35.246Z,40.73
2018-03-01T02:00:03.558Z,43.07
2018-03-01T02:02:32.050Z,42.97
2018-03-01T02:05:04.226Z,44.60
2018-03-01T02:07:37.878Z,42.80
2018-03-01T02:10:12.268Z,42.87
2018-03-01T02:16:03.625Z,47.30
2018-03-01T02:18:31.903Z,43.60
2018-03-01T02:21:02.080Z,49.33
2018-03-01T02:23:35.906Z,50.23
2018-03-01T02:26:04.220Z,47.13
2018-03-01T02:28:33.920Z,42.17
2018-03-01T02:31:02.794Z,41.60
2018-03-01T02:33:32.758Z,41.07
2018-03-01T02:36:01.350Z,43.70
2018-03-01T02:38:36.563Z,45.23
2018-03-01T02:41:05.190Z,44.30
2018-03-01T02:43:34.134Z,42.53
2018-03-01T02:46:04.802Z,48.77
2018-03-01T02:48:33.277Z,40.00
2018-03-01T02:51:03.399Z,43.37
2018-03-01T02:53:32.547Z,49.00
2018-03-01T02:56:01.815Z,43.97
2018-03-01T02:58:51.298Z,50.17
2018-03-01T03:01:19.622Z,45.87
2018-03-01T03:03:48.483Z,46.70
2018-03-01T03:06:23.827Z,47.60
2018-03-01T03:08:53.097Z,54.60
2018-03-01T03:11:21.488Z,49.53
2018-03-01T03:13:50.199Z,48.57
2018-03-01T03:16:18.761Z,54.27
2018-03-01T03:18:49.174Z,47.60
2018-03-01T03:21:19.770Z,53.37
2018-03-01T03:23:53.924Z,47.90
2018-03-01T03:26:29.780Z,53.83
2018-03-01T03:28:58.950Z,56.13
2018-03-01T03:31:27.301Z,52.57
2018-03-01T03:33:55.598Z,57.23
2018-03-01T03:36:23.892Z,51.80
2018-03-01T03:38:53.271Z,50.20
2018-03-01T03:41:22.285Z,51.07
2018-03-01T03:44:08.295Z,53.63
2018-03-01T03:46:42.040Z,42.20
2018-03-01T03:49:11.036Z,50.77
2018-03-01T03:51:47.134Z,46.87
2018-03-01T03:54:22.976Z,48.23
2018-03-01T03:56:57.219Z,50.13
2018-03-01T03:59:30.644Z,56.20
2018-03-01T04:02:03.052Z,38.47
2018-03-01T04:04:33.052Z,48.40
2018-03-01T04:07:03.780Z,46.80
2018-03-01T04:09:32.084Z,50.40
2018-03-01T04:12:00.391Z,50.37
2018-03-01T04:14:32.152Z,56.70
2018-03-01T04:17:02.410Z,44.47
2018-03-01T04:19:31.228Z,45.17
2018-03-01T04:22:04.245Z,41.03
2018-03-01T04:24:32.924Z,43.47
2018-03-01T04:27:06.597Z,38.10
2018-03-01T04:29:34.900Z,44.30
2018-03-01T04:32:06.994Z,47.27
2018-03-01T04:34:38.884Z,39.33
2018-03-01T04:37:14.148Z,42.37
2018-03-01T04:39:47.162Z,45.90
2018-03-01T04:42:22.998Z,40.17
2018-03-01T04:44:59.178Z,44.47
2018-03-01T04:47:27.631Z,43.97
2018-03-01T04:49:56.763Z,40.93
2018-03-01T04:52:25.805Z,44.50
2018-03-01T04:54:55.164Z,43.83
2018-03-01T04:57:23.445Z,41.30
2018-03-01T04:59:53.220Z,41.00
2018-03-01T05:02:21.557Z,39.27
2018-03-01T05:04:52.332Z,47.57
2018-03-01T05:07:20.619Z,40.47
2018-03-01T05:09:50.111Z,47.20
2018-03-01T05:12:23.631Z,46.43
2018-03-01T05:14:52.158Z,47.33
2018-03-01T05:17:25.755Z,43.00
2018-03-01T05:19:55.729Z,50.07
2018-03-01T05:22:25.039Z,53.23
2018-03-01T05:24:56.968Z,50.00
2018-03-01T05:27:26.012Z,51.53
2018-03-01T05:29:54.303Z,60.73
2018-03-01T05:32:27.720Z,60.23
2018-03-01T05:35:01.273Z,46.67
2018-03-01T05:37:37.668Z,49.90
2018-03-01T05:40:10.779Z,54.10
2018-03-01T05:42:50.364Z,48.23
2018-03-01T05:45:19.879Z,46.13
2018-03-01T05:47:54.409Z,52.93
2018-03-01T05:50:30.376Z,52.13
2018-03-01T05:53:04.971Z,53.77
2018-03-01T05:55:37.969Z,42.27
2018-03-01T05:58:14.430Z,45.53
2018-03-01T06:00:50.990Z,48.27
2018-03-01T06:03:23.724Z,53.87
2018-03-01T06:06:00.063Z,49.37
2018-03-01T06:08:35.563Z,50.80
2018-03-01T06:11:04.374Z,45.53
2018-03-01T06:13:32.652Z,52.67
2018-03-01T06:16:01.189Z,53.60
2018-03-01T06:18:31.335Z,48.87
2018-03-01T06:21:06.749Z,48.40
2018-03-01T06:23:35.035Z,46.60
2018-03-01T06:26:03.886Z,60.37
2018-03-01T06:28:35.524Z,56.53
2018-03-01T06:31:08.802Z,56.53
2018-03-01T06:33:40.742Z,60.83
2018-03-01T06:36:10.318Z,55.93
2018-03-01T06:38:41.096Z,61.93
2018-03-01T06:41:10.414Z,67.23
2018-03-01T06:43:39.377Z,70.37
2018-03-01T06:46:15.147Z,56.30
2018-03-01T06:48:47.551Z,59.50
2018-03-01T06:51:21.923Z,60.10
2018-03-01T06:53:52.139Z,64.47
2018-03-01T06:56:21.150Z,59.23
2018-03-01T06:58:50.018Z,56.60
2018-03-01T07:01:18.955Z,62.20
2018-03-01T07:03:48.200Z,70.87
2018-03-01T07:06:17.504Z,62.33
2018-03-01T07:08:46.520Z,64.73
2018-03-01T07:11:14.940Z,61.20
2018-03-01T07:13:43.199Z,62.83
2018-03-01T07:16:13.440Z,51.30
2018-03-01T07:18:44.933Z,55.23
2018-03-01T07:21:21.196Z,58.57
2018-03-01T07:23:52.789Z,57.63
2018-03-01T07:26:22.069Z,59.33
2018-03-01T07:28:53.886Z,65.57
2018-03-01T07:31:23.119Z,59.40
2018-03-01T07:33:51.720Z,58.93
2018-03-01T07:36:20.771Z,51.17
2018-03-01T07:38:49.996Z,59.33
2018-03-01T07:41:19.997Z,58.60
2018-03-01T07:43:48.342Z,59.33
2018-03-01T07:46:39.369Z,55.67
2018-03-01T07:49:12.065Z,46.77
2018-03-01T07:51:41.269Z,48.37
2018-03-01T07:54:14.073Z,53.33
2018-03-01T07:56:42.374Z,50.63
2018-03-01T07:59:10.885Z,46.83
2018-03-01T08:01:42.890Z,57.50
2018-03-01T08:04:11.349Z,53.37
2018-03-01T08:06:46.296Z,60.77
2018-03-01T08:09:21.891Z,54.50
2018-03-01T08:11:51.563Z,63.53
2018-03-01T08:14:20.091Z,67.53
2018-03-01T08:16:49.464Z,52.27
2018-03-01T08:19:18.288Z,62.40
2018-03-01T08:21:47.028Z,63.83
2018-03-01T08:24:21.047Z,57.73
2018-03-01T08:26:49.836Z,57.40
2018-03-01T08:29:19.223Z,49.43
2018-03-01T08:32:10.153Z,58.47
2018-03-01T08:34:40.397Z,54.33
2018-03-01T08:37:10.856Z,50.97
2018-03-01T08:39:40.672Z,49.77
2018-03-01T08:42:12.028Z,61.27
2018-03-01T08:44:44.775Z,63.77
2018-03-01T08:47:35.519Z,59.47
2018-03-01T08:50:07.500Z,47.90
2018-03-01T08:52:42.403Z,57.03
2018-03-01T08:55:14.950Z,59.90
2018-03-01T08:57:46.771Z,55.93
2018-03-01T09:00:19.305Z,53.20
2018-03-01T09:02:48.196Z,53.50
2018-03-01T09:05:19.619Z,54.97
2018-03-01T09:07:47.922Z,49.47
2018-03-01T09:10:16.261Z,53.30
2018-03-01T09:12:49.020Z,57.10
2018-03-01T09:15:18.086Z,48.13
2018-03-01T09:17:49.453Z,59.27
2018-03-01T09:20:17.724Z,48.60
2018-03-01T09:22:47.199Z,44.13
2018-03-01T09:25:16.163Z,50.87
2018-03-01T09:27:46.002Z,53.50
2018-03-01T09:30:14.305Z,50.50
2018-03-01T09:32:42.597Z,47.13
2018-03-01T09:35:10.892Z,50.60
2018-03-01T09:37:39.181Z,48.17
2018-03-01T09:40:10.962Z,51.23
2018-03-01T09:42:42.035Z,58.00
2018-03-01T09:45:12.175Z,61.63
2018-03-01T09:47:43.379Z,66.83
2018-03-01T09:50:11.671Z,57.40
2018-03-01T09:52:41.382Z,58.90
2018-03-01T09:55:09.658Z,61.30
2018-03-01T09:57:43.136Z,61.73
2018-03-01T10:00:11.430Z,59.00
2018-03-01T10:02:39.722Z,53.37
2018-03-01T10:05:08.076Z,55.13
2018-03-01T10:07:37.767Z,55.93
2018-03-01T10:10:07.529Z,49.10
2018-03-01T10:12:40.751Z,53.40
2018-03-01T10:15:10.036Z,46.67
2018-03-01T10:17:38.976Z,51.30
2018-03-01T10:20:07.256Z,38.33
2018-03-01T10:22:37.319Z,50.43
2018-03-01T10:25:06.268Z,45.33
2018-03-01T10:27:41.223Z,47.20
2018-03-01T10:30:11.108Z,45.87
2018-03-01T10:32:50.155Z,42.93
2018-03-01T10:35:23.815Z,49.03
2018-03-01T10:37:58.113Z,44.43
2018-03-01T10:40:28.907Z,49.13
2018-03-01T10:42:57.211Z,40.97
2018-03-01T10:45:25.525Z,46.07
2018-03-01T10:47:53.822Z,41.90
2018-03-01T10:50:24.913Z,50.80
2018-03-01T10:52:59.013Z,46.47
2018-03-01T10:55:30.403Z,43.40
2018-03-01T10:58:02.986Z,43.73
2018-03-01T11:00:42.689Z,42.77
2018-03-01T11:03:18.567Z,39.87
2018-03-01T11:05:50.452Z,40.57
2018-03-01T11:08:19.631Z,46.20
2018-03-01T11:10:51.458Z,40.70
2018-03-01T11:13:23.261Z,41.43
2018-03-01T11:15:51.553Z,46.50
2018-03-01T11:18:21.479Z,43.60
2018-03-01T11:20:51.807Z,49.13
2018-03-01T11:23:25.995Z,48.00
2018-03-01T11:26:01.428Z,47.77
2018-03-01T11:28:34.601Z,46.57
2018-03-01T11:31:11.186Z,45.77
2018-03-01T11:33:46.021Z,41.17
2018-03-01T11:36:19.424Z,45.23
2018-03-01T11:38:57.233Z,40.93
2018-03-01T11:41:30.799Z,41.57
2018-03-01T11:44:04.145Z,40.10
2018-03-01T11:46:39.416Z,41.23
2018-03-01T11:49:07.888Z,39.93
2018-03-01T11:51:36.513Z,40.47
2018-03-01T11:54:05.616Z,42.50
2018-03-01T11:56:34.097Z,40.37
2018-03-01T11:59:05.578Z,40.03
2018-03-01T12:01:38.935Z,39.87
2018-03-01T12:04:12.584Z,40.43
2018-03-01T12:06:42.363Z,38.00
2018-03-01T12:09:15.291Z,43.53
2018-03-01T12:11:43.584Z,37.97
2018-03-01T12:14:11.867Z,40.37
2018-03-01T12:16:47.569Z,38.30
2018-03-01T12:19:16.637Z,39.23
2018-03-01T12:21:49.815Z,42.40
2018-03-01T12:24:22.391Z,44.03
2018-03-01T12:26:58.071Z,45.50
2018-03-01T12:29:31.574Z,38.67
2018-03-01T12:32:04.070Z,42.17
2018-03-01T12:34:40.647Z,42.33
2018-03-01T12:37:17.128Z,43.50
2018-03-01T12:39:51.967Z,43.70
2018-03-01T12:42:23.304Z,40.10
2018-03-01T12:44:52.666Z,44.17
2018-03-01T12:47:23.576Z,42.70
2018-03-01T12:49:52.554Z,39.90
2018-03-01T12:52:22.271Z,43.50
2018-03-01T12:54:54.439Z,45.80
2018-03-01T12:57:25.120Z,47.13
2018-03-01T12:59:58.066Z,45.43
2018-03-01T13:02:33.188Z,49.10
2018-03-01T13:05:12.592Z,51.30
2018-03-01T13:07:48.667Z,46.07
2018-03-01T13:10:20.545Z,50.90
2018-03-01T13:12:55.922Z,38.97
2018-03-01T13:15:29.915Z,43.83
2018-03-01T13:18:04.680Z,51.23
2018-03-01T13:20:37.015Z,51.27
2018-03-01T13:23:05.578Z,39.80
2018-03-01T13:25:36.929Z,44.70
2018-03-01T13:28:06.750Z,48.47
2018-03-01T13:33:42.356Z,42.90
2018-03-01T13:36:37.838Z,44.87
2018-03-01T13:39:14.627Z,45.10
2018-03-01T13:41:46.122Z,45.83
2018-03-01T13:44:15.144Z,52.93
2018-03-01T13:46:47.930Z,46.67
2018-03-01T13:49:17.671Z,48.27
2018-03-01T13:51:47.242Z,47.67
2018-03-01T13:54:16.180Z,48.33
2018-03-01T13:56:48.091Z,53.50
2018-03-01T13:59:20.837Z,51.17
2018-03-01T14:01:50.995Z,46.73
2018-03-01T14:04:42.067Z,40.37
2018-03-01T14:07:14.785Z,51.10
2018-03-01T14:09:45.969Z,49.37
2018-03-01T14:12:15.156Z,49.93
2018-03-01T14:14:52.194Z,50.57
2018-03-01T14:17:21.531Z,58.00
2018-03-01T14:19:57.787Z,50.40
2018-03-01T14:25:31.570Z,59.83
2018-03-01T14:28:06.283Z,61.07
2018-03-01T14:30:34.795Z,51.50
2018-03-01T14:33:03.092Z,52.30
2018-03-01T14:35:34.711Z,47.87
2018-03-01T14:38:05.522Z,55.53
2018-03-01T14:40:37.735Z,49.47
2018-03-01T14:43:09.208Z,57.47
2018-03-01T14:45:38.572Z,52.23
2018-03-01T14:48:08.662Z,58.70
2018-03-01T14:50:39.771Z,54.43
2018-03-01T14:53:08.091Z,51.93
2018-03-01T14:55:39.012Z,49.13
2018-03-01T14:58:14.303Z,56.37
2018-03-01T15:00:44.607Z,50.07
2018-03-01T15:03:13.122Z,57.80
2018-03-01T15:05:45.246Z,43.00
2018-03-01T15:08:15.440Z,48.57
2018-03-01T15:10:44.542Z,49.40
2018-03-01T15:13:13.439Z,40.13
2018-03-01T15:15:47.375Z,56.97
2018-03-01T15:18:18.715Z,47.40
2018-03-01T15:20:48.014Z,50.97
2018-03-01T15:23:17.059Z,50.20
2018-03-01T15:25:48.044Z,41.57
2018-03-01T15:28:16.735Z,50.40
2018-03-01T15:30:46.552Z,52.33
2018-03-01T15:33:17.191Z,47.00
2018-03-01T15:35:47.344Z,49.67
2018-03-01T15:38:19.963Z,53.27
2018-03-01T15:40:48.261Z,38.20
2018-03-01T15:43:16.546Z,49.67
2018-03-01T15:45:46.943Z,52.23
2018-03-01T15:48:21.272Z,47.27
2018-03-01T15:51:23.600Z,55.23
2018-03-01T15:54:00.137Z,48.70
2018-03-01T15:56:28.424Z,45.50
2018-03-01T15:58:57.186Z,56.80
2018-03-01T16:01:27.125Z,36.40
2018-03-01T16:03:56.186Z,46.23
2018-03-01T16:06:24.985Z,50.57
2018-03-01T16:08:54.685Z,52.47
2018-03-01T16:11:32.489Z,41.57
2018-03-01T16:14:10.125Z,39.10
2018-03-01T16:16:39.878Z,44.83
2018-03-01T16:19:17.151Z,44.53
2018-03-01T16:22:08.226Z,46.23
2018-03-01T16:24:40.592Z,45.90
2018-03-01T16:27:09.810Z,49.83
2018-03-01T16:29:43.250Z,36.30
2018-03-01T16:32:15.036Z,45.40
2018-03-01T16:34:48.544Z,37.80
2018-03-01T16:37:22.040Z,48.00
2018-03-01T16:39:57.042Z,38.20
2018-03-01T16:42:28.100Z,48.57
2018-03-01T16:44:56.390Z,43.80
2018-03-01T16:47:26.066Z,48.37
2018-03-01T16:49:55.989Z,47.50
2018-03-01T16:52:25.025Z,41.50
2018-03-01T16:54:55.421Z,45.73
2018-03-01T16:57:30.751Z,44.30
2018-03-01T17:00:05.094Z,41.63
2018-03-01T17:02:37.144Z,46.30
2018-03-01T17:05:06.111Z,43.40
2018-03-01T17:07:35.024Z,39.87
2018-03-01T17:10:03.329Z,46.47
2018-03-01T17:12:32.442Z,36.20
2018-03-01T17:15:00.731Z,44.83
2018-03-01T17:17:32.640Z,49.33
2018-03-01T17:20:05.808Z,48.17
2018-03-01T17:22:43.555Z,51.03
2018-03-01T17:25:14.665Z,46.43
2018-03-01T17:27:46.248Z,42.10
2018-03-01T17:30:17.441Z,51.17
2018-03-01T17:32:45.750Z,43.50
2018-03-01T17:35:15.204Z,40.87
2018-03-01T17:37:45.186Z,45.87
2018-03-01T17:40:15.961Z,45.50
2018-03-01T17:42:53.291Z,49.43
2018-03-01T17:45:26.282Z,41.27
2018-03-01T17:48:00.252Z,39.10
2018-03-01T17:50:36.401Z,52.17
2018-03-01T17:53:45.910Z,44.47
2018-03-01T17:56:20.294Z,39.97
2018-03-01T17:58:56.608Z,43.93
2018-03-01T18:01:31.163Z,39.97
2018-03-01T18:04:02.934Z,47.70
2018-03-01T18:06:31.235Z,42.03
2018-03-01T18:09:04.364Z,40.27
2018-03-01T18:11:35.059Z,43.00
2018-03-01T18:14:04.573Z,38.13
2018-03-01T18:16:33.005Z,34.60
2018-03-01T18:19:01.300Z,43.07
2018-03-01T18:21:33.398Z,37.57
2018-03-01T18:24:23.755Z,37.00
2018-03-01T18:26:52.359Z,39.83
2018-03-01T18:29:20.977Z,39.30
2018-03-01T18:31:52.411Z,30.43
2018-03-01T18:34:24.619Z,37.47
2018-03-01T18:36:57.481Z,36.10
2018-03-01T18:39:30.439Z,39.27
2018-03-01T18:41:59.699Z,30.63
2018-03-01T18:44:27.981Z,35.43
2018-03-01T18:46:56.580Z,42.03
2018-03-01T18:49:25.432Z,33.00
2018-03-01T18:51:56.374Z,33.03
2018-03-01T18:54:24.676Z,35.80
2018-03-01T18:56:54.085Z,31.93
2018-03-01T18:59:24.978Z,36.83
2018-03-01T19:01:57.277Z,25.03
2018-03-01T19:04:26.269Z,33.40
2018-03-01T19:06:54.848Z,39.73
2018-03-01T19:09:23.405Z,41.50
2018-03-01T19:11:53.323Z,36.97
2018-03-01T19:14:23.428Z,34.83
2018-03-01T19:16:52.071Z,37.70
2018-03-01T19:19:22.794Z,37.47
2018-03-01T19:21:52.774Z,43.13
2018-03-01T19:24:21.325Z,37.83
2018-03-01T19:26:50.802Z,38.80
2018-03-01T19:29:19.803Z,31.13
2018-03-01T19:31:48.099Z,30.30
2018-03-01T19:34:22.023Z,30.13
2018-03-01T19:36:55.991Z,37.97
2018-03-01T19:39:42.498Z,31.53
2018-03-01T19:42:10.784Z,28.40
2018-03-01T19:44:41.267Z,32.00
2018-03-01T19:47:14.180Z,29.60
2018-03-01T19:49:49.707Z,36.07
2018-03-01T19:52:27.168Z,39.10
2018-03-01T19:54:56.429Z,42.73
2018-03-01T19:57:24.724Z,27.60
2018-03-01T19:59:53.953Z,36.03
2018-03-01T20:02:22.278Z,36.03
2018-03-01T20:04:50.642Z,39.10
2018-03-01T20:07:22.212Z,37.27
2018-03-01T20:09:58.084Z,35.37
2018-03-01T20:12:32.212Z,33.70
2018-03-01T20:15:07.140Z,41.27
2018-03-01T20:17:40.977Z,34.13
2018-03-01T20:20:13.931Z,28.23
2018-03-01T20:22:43.527Z,32.13
2018-03-01T20:25:14.263Z,31.77
2018-03-01T20:27:47.165Z,31.13
2018-03-01T20:30:15.463Z,31.17
2018-03-01T20:32:55.831Z,35.37
2018-03-01T20:35:24.461Z,28.40
2018-03-01T20:37:53.626Z,35.00
2018-03-01T20:40:24.827Z,37.13
2018-03-01T20:42:58.538Z,26.50
2018-03-01T20:45:30.639Z,41.37
2018-03-01T20:47:59.805Z,32.33
2018-03-01T20:50:32.272Z,34.57
2018-03-01T20:53:00.641Z,33.73
2018-03-01T20:55:30.789Z,38.43
2018-03-01T20:58:10.987Z,32.40
2018-03-01T21:00:42.436Z,36.43
2018-03-01T21:03:12.919Z,34.63
2018-03-01T21:05:42.551Z,41.07
2018-03-01T21:08:20.488Z,34.93
2018-03-01T21:10:57.097Z,40.20
2018-03-01T21:13:27.745Z,33.83
2018-03-01T21:16:04.147Z,37.07
2018-03-01T21:18:33.048Z,41.07
2018-03-01T21:21:03.966Z,29.73
2018-03-01T21:23:35.416Z,37.43
2018-03-01T21:26:05.275Z,36.70
2018-03-01T21:28:35.292Z,38.60
2018-03-01T21:31:04.628Z,41.67
2018-03-01T21:33:34.394Z,42.63
2018-03-01T21:36:02.683Z,35.63
2018-03-01T21:38:34.057Z,38.50
2018-03-01T21:41:02.359Z,35.33
2018-03-01T21:43:30.648Z,36.33
2018-03-01T21:45:59.599Z,30.67
2018-03-01T21:48:32.669Z,38.80
2018-03-01T21:51:01.839Z,44.10
2018-03-01T21:53:30.149Z,37.33
2018-03-01T21:55:58.433Z,40.70
2018-03-01T21:58:26.862Z,47.40
2018-03-01T22:00:55.395Z,32.50
2018-03-01T22:03:25.056Z,44.63
2018-03-01T22:05:55.623Z,37.57
2018-03-01T22:08:23.925Z,40.67
2018-03-01T22:10:52.968Z,38.53
2018-03-01T22:13:21.430Z,42.83
2018-03-01T22:15:53.740Z,40.77
2018-03-01T22:18:27.538Z,36.27
2018-03-01T22:21:01.255Z,36.97
2018-03-01T22:23:30.504Z,45.33
2018-03-01T22:26:01.507Z,29.93
2018-03-01T22:28:29.995Z,37.80
2018-03-01T22:31:00.533Z,35.13
2018-03-01T22:33:29.201Z,35.27
2018-03-01T22:36:07.409Z,37.27
2018-03-01T22:38:36.384Z,35.63
2018-03-01T22:44:27.539Z,33.40
2018-03-01T22:46:56.846Z,34.40
2018-03-01T22:49:25.219Z,37.47
2018-03-01T22:51:56.863Z,34.27
2018-03-01T22:54:25.285Z,34.00
2018-03-01T22:57:18.972Z,29.53
2018-03-01T22:59:49.039Z,33.77
2018-03-01T23:02:27.194Z,34.17
2018-03-01T23:05:00.117Z,29.93
2018-03-01T23:07:32.680Z,35.63
2018-03-01T23:10:07.263Z,36.17
2018-03-01T23:12:44.302Z,34.90
2018-03-01T23:15:18.832Z,33.93
2018-03-01T23:17:48.096Z,33.93
2018-03-01T23:20:17.224Z,43.43
2018-03-01T23:22:46.888Z,32.10
2018-03-01T23:25:16.605Z,32.63
2018-03-01T23:27:48.784Z,33.10
2018-03-01T23:30:17.267Z,37.83
2018-03-01T23:32:53.618Z,32.73
2018-03-01T23:35:28.199Z,26.50
2018-03-01T23:37:58.402Z,30.70
2018-03-01T23:40:31.881Z,39.77
2018-03-01T23:43:00.907Z,33.57
2018-03-01T23:45:30.882Z,33.00
2018-03-01T23:47:59.360Z,26.77
2018-03-01T23:50:27.653Z,32.57
2018-03-01T23:52:56.456Z,30.73
2018-03-01T23:55:25.143Z,30.50
2018-03-01T23:57:53.464Z,34.47
